Terminal Aerodrome Forecast
Issued by NWS

Home | Current Version | Previous Version | Text Only | Print | Product List | Glossary On
Versions: 1 2 3 4 5 6 7 8 9 10 11 12 13 14 15 16 17 18 19 20 21 22 23 24 25 26 27 28 29 30 31 32 33 34
000
FTUS42 KJAX 271953 AAA
TAFVQQ
TAF AMD
KVQQ 271953Z 2720/2818 25012G20KT P6SM VCTS BKN025CB OVC050
      TEMPO 2720/2722 3SM SHRA BKN015 OVC030
     FM272200 28012G20KT P6SM VCSH SCT025 BKN040
     FM272300 29010KT P6SM SCT040 BKN250
     FM280300 32008KT P6SM SKC
     FM281500 31011G20KT P6SM SCT250=

USA.gov is the U.S. government's official web portal to all federal, state and local government web resources and services.